sensor_id;sensor_type;location;lat;lon;timestamp;P1;durP1;ratioP1;P2;durP2;ratioP2
22289;SDS011;11313;50.116;8.424;2023-04-22T00:00:08;22.15;;;20.83;;
22289;SDS011;11313;50.116;8.424;2023-04-22T00:02:36;22.42;;;21.02;;
22289;SDS011;11313;50.116;8.424;2023-04-22T00:05:02;21.63;;;20.33;;
22289;SDS011;11313;50.116;8.424;2023-04-22T00:07:29;24.10;;;22.70;;
22289;SDS011;11313;50.116;8.424;2023-04-22T00:09:54;19.65;;;18.48;;
22289;SDS011;11313;50.116;8.424;2023-04-22T00:12:20;23.48;;;22.10;;
22289;SDS011;11313;50.116;8.424;2023-04-22T00:14:46;19.58;;;18.38;;
22289;SDS011;11313;50.116;8.424;2023-04-22T00:17:11;22.55;;;21.20;;
22289;SDS011;11313;50.116;8.424;2023-04-22T00:19:37;23.17;;;21.83;;
22289;SDS011;11313;50.116;8.424;2023-04-22T00:22:02;14.20;;;13.30;;
22289;SDS011;11313;50.116;8.424;2023-04-22T00:24:28;10.88;;;10.18;;
22289;SDS011;11313;50.116;8.424;2023-04-22T00:26:54;10.15;;;9.55;;
22289;SDS011;11313;50.116;8.424;2023-04-22T00:29:19;13.00;;;12.20;;
22289;SDS011;11313;50.116;8.424;2023-04-22T00:31:45;10.95;;;10.27;;
22289;SDS011;11313;50.116;8.424;2023-04-22T00:34:10;9.82;;;8.90;;
22289;SDS011;11313;50.116;8.424;2023-04-22T00:36:36;17.27;;;16.27;;
22289;SDS011;11313;50.116;8.424;2023-04-22T00:39:01;10.23;;;9.63;;
22289;SDS011;11313;50.116;8.424;2023-04-22T00:41:27;10.18;;;9.52;;
22289;SDS011;11313;50.116;8.424;2023-04-22T00:43:53;11.68;;;10.98;;
22289;SDS011;11313;50.116;8.424;2023-04-22T00:46:19;11.25;;;10.32;;
22289;SDS011;11313;50.116;8.424;2023-04-22T00:48:45;11.73;;;11.02;;
22289;SDS011;11313;50.116;8.424;2023-04-22T00:51:10;10.40;;;9.68;;
22289;SDS011;11313;50.116;8.424;2023-04-22T00:53:36;10.75;;;10.02;;
22289;SDS011;11313;50.116;8.424;2023-04-22T00:56:02;10.98;;;10.27;;
22289;SDS011;11313;50.116;8.424;2023-04-22T00:58:28;9.63;;;9.02;;
22289;SDS011;11313;50.116;8.424;2023-04-22T01:00:53;10.65;;;10.05;;
22289;SDS011;11313;50.116;8.424;2023-04-22T01:03:19;10.93;;;10.25;;
22289;SDS011;11313;50.116;8.424;2023-04-22T01:05:46;7.72;;;7.28;;
22289;SDS011;11313;50.116;8.424;2023-04-22T01:08:13;9.27;;;8.70;;
22289;SDS011;11313;50.116;8.424;2023-04-22T01:10:39;9.30;;;8.73;;
22289;SDS011;11313;50.116;8.424;2023-04-22T01:13:06;9.57;;;9.07;;
22289;SDS011;11313;50.116;8.424;2023-04-22T01:15:32;11.88;;;11.07;;
22289;SDS011;11313;50.116;8.424;2023-04-22T01:17:58;12.52;;;11.77;;
22289;SDS011;11313;50.116;8.424;2023-04-22T01:20:26;7.50;;;7.00;;
22289;SDS011;11313;50.116;8.424;2023-04-22T01:22:53;9.82;;;9.13;;
22289;SDS011;11313;50.116;8.424;2023-04-22T01:25:21;8.18;;;7.65;;
22289;SDS011;11313;50.116;8.424;2023-04-22T01:27:47;13.02;;;12.23;;
22289;SDS011;11313;50.116;8.424;2023-04-22T01:30:13;13.02;;;12.30;;
22289;SDS011;11313;50.116;8.424;2023-04-22T01:32:39;7.47;;;7.03;;
22289;SDS011;11313;50.116;8.424;2023-04-22T01:35:05;8.25;;;7.75;;
22289;SDS011;11313;50.116;8.424;2023-04-22T01:37:31;13.77;;;12.98;;
22289;SDS011;11313;50.116;8.424;2023-04-22T01:39:57;10.77;;;9.98;;
22289;SDS011;11313;50.116;8.424;2023-04-22T01:42:23;10.25;;;9.65;;
22289;SDS011;11313;50.116;8.424;2023-04-22T01:44:49;10.63;;;9.98;;
22289;SDS011;11313;50.116;8.424;2023-04-22T01:47:14;9.98;;;9.38;;
22289;SDS011;11313;50.116;8.424;2023-04-22T01:49:40;7.93;;;7.43;;
22289;SDS011;11313;50.116;8.424;2023-04-22T01:52:05;15.77;;;14.88;;
22289;SDS011;11313;50.116;8.424;2023-04-22T01:54:31;13.68;;;12.88;;
22289;SDS011;11313;50.116;8.424;2023-04-22T01:56:57;20.50;;;19.30;;
22289;SDS011;11313;50.116;8.424;2023-04-22T01:59:22;20.77;;;19.52;;
22289;SDS011;11313;50.116;8.424;2023-04-22T02:01:48;25.65;;;24.20;;
22289;SDS011;11313;50.116;8.424;2023-04-22T02:04:14;17.48;;;16.45;;
22289;SDS011;11313;50.116;8.424;2023-04-22T02:06:39;19.45;;;18.40;;
22289;SDS011;11313;50.116;8.424;2023-04-22T02:09:05;31.42;;;29.58;;
22289;SDS011;11313;50.116;8.424;2023-04-22T02:11:31;15.45;;;14.57;;
22289;SDS011;11313;50.116;8.424;2023-04-22T02:13:56;16.67;;;15.68;;
22289;SDS011;11313;50.116;8.424;2023-04-22T02:16:22;11.88;;;11.18;;
22289;SDS011;11313;50.116;8.424;2023-04-22T02:18:47;11.98;;;11.27;;
22289;SDS011;11313;50.116;8.424;2023-04-22T02:21:13;15.60;;;14.70;;
22289;SDS011;11313;50.116;8.424;2023-04-22T02:23:39;12.50;;;11.77;;
22289;SDS011;11313;50.116;8.424;2023-04-22T02:26:05;15.07;;;14.25;;
22289;SDS011;11313;50.116;8.424;2023-04-22T02:28:31;18.58;;;17.50;;
22289;SDS011;11313;50.116;8.424;2023-04-22T02:30:57;15.68;;;14.80;;
22289;SDS011;11313;50.116;8.424;2023-04-22T02:33:23;13.32;;;12.52;;
22289;SDS011;11313;50.116;8.424;2023-04-22T02:35:48;18.33;;;17.33;;
22289;SDS011;11313;50.116;8.424;2023-04-22T02:38:14;17.80;;;16.67;;
22289;SDS011;11313;50.116;8.424;2023-04-22T02:40:40;20.35;;;19.10;;
22289;SDS011;11313;50.116;8.424;2023-04-22T02:43:05;28.45;;;26.90;;
22289;SDS011;11313;50.116;8.424;2023-04-22T02:45:31;23.65;;;22.15;;
22289;SDS011;11313;50.116;8.424;2023-04-22T02:47:57;58.08;;;54.83;;
22289;SDS011;11313;50.116;8.424;2023-04-22T02:50:22;19.15;;;18.05;;
22289;SDS011;11313;50.116;8.424;2023-04-22T02:52:48;14.10;;;13.30;;
22289;SDS011;11313;50.116;8.424;2023-04-22T02:55:13;17.30;;;16.30;;
22289;SDS011;11313;50.116;8.424;2023-04-22T02:57:39;32.85;;;31.02;;
22289;SDS011;11313;50.116;8.424;2023-04-22T03:00:05;27.65;;;26.13;;
22289;SDS011;11313;50.116;8.424;2023-04-22T03:02:32;107.43;;;101.32;;
22289;SDS011;11313;50.116;8.424;2023-04-22T03:04:57;44.83;;;42.30;;
22289;SDS011;11313;50.116;8.424;2023-04-22T03:07:24;170.95;;;161.13;;
22289;SDS011;11313;50.116;8.424;2023-04-22T03:09:50;63.15;;;59.45;;
22289;SDS011;11313;50.116;8.424;2023-04-22T03:12:15;269.20;;;253.77;;
22289;SDS011;11313;50.116;8.424;2023-04-22T03:14:41;191.25;;;180.05;;
22289;SDS011;11313;50.116;8.424;2023-04-22T03:17:06;104.68;;;98.70;;
22289;SDS011;11313;50.116;8.424;2023-04-22T03:19:32;319.15;;;300.40;;
22289;SDS011;11313;50.116;8.424;2023-04-22T03:21:57;178.27;;;167.98;;
22289;SDS011;11313;50.116;8.424;2023-04-22T03:24:23;270.13;;;254.07;;
22289;SDS011;11313;50.116;8.424;2023-04-22T03:26:48;80.40;;;75.82;;
22289;SDS011;11313;50.116;8.424;2023-04-22T03:29:14;50.75;;;47.92;;
22289;SDS011;11313;50.116;8.424;2023-04-22T03:31:39;140.05;;;131.95;;
22289;SDS011;11313;50.116;8.424;2023-04-22T03:34:05;158.77;;;149.48;;
22289;SDS011;11313;50.116;8.424;2023-04-22T03:36:30;147.18;;;138.45;;
22289;SDS011;11313;50.116;8.424;2023-04-22T03:38:56;224.85;;;211.57;;
22289;SDS011;11313;50.116;8.424;2023-04-22T03:41:21;85.50;;;80.65;;
22289;SDS011;11313;50.116;8.424;2023-04-22T03:43:47;200.70;;;189.25;;
22289;SDS011;11313;50.116;8.424;2023-04-22T03:46:12;186.98;;;176.38;;
22289;SDS011;11313;50.116;8.424;2023-04-22T03:48:38;188.20;;;177.38;;
22289;SDS011;11313;50.116;8.424;2023-04-22T03:51:04;403.75;;;379.42;;
22289;SDS011;11313;50.116;8.424;2023-04-22T03:53:29;220.63;;;207.82;;
22289;SDS011;11313;50.116;8.424;2023-04-22T03:55:55;186.70;;;175.80;;
22289;SDS011;11313;50.116;8.424;2023-04-22T03:58:20;182.20;;;171.75;;
22289;SDS011;11313;50.116;8.424;2023-04-22T04:00:46;295.70;;;278.33;;
22289;SDS011;11313;50.116;8.424;2023-04-22T04:03:12;161.50;;;152.13;;
22289;SDS011;11313;50.116;8.424;2023-04-22T04:05:37;248.73;;;234.23;;
22289;SDS011;11313;50.116;8.424;2023-04-22T04:08:03;223.93;;;210.70;;
22289;SDS011;11313;50.116;8.424;2023-04-22T04:10:28;323.15;;;304.05;;
22289;SDS011;11313;50.116;8.424;2023-04-22T04:12:54;214.43;;;201.98;;
22289;SDS011;11313;50.116;8.424;2023-04-22T04:15:19;193.30;;;181.82;;
22289;SDS011;11313;50.116;8.424;2023-04-22T04:17:45;177.80;;;167.52;;
22289;SDS011;11313;50.116;8.424;2023-04-22T04:20:12;175.95;;;165.82;;
22289;SDS011;11313;50.116;8.424;2023-04-22T04:22:38;252.18;;;237.48;;
22289;SDS011;11313;50.116;8.424;2023-04-22T04:25:04;143.32;;;135.05;;
22289;SDS011;11313;50.116;8.424;2023-04-22T04:27:31;114.68;;;108.20;;
22289;SDS011;11313;50.116;8.424;2023-04-22T04:29:56;213.48;;;201.40;;
22289;SDS011;11313;50.116;8.424;2023-04-22T04:32:22;156.93;;;147.50;;
22289;SDS011;11313;50.116;8.424;2023-04-22T04:34:48;152.25;;;143.63;;
22289;SDS011;11313;50.116;8.424;2023-04-22T04:37:14;118.80;;;111.95;;
22289;SDS011;11313;50.116;8.424;2023-04-22T04:39:41;99.43;;;93.78;;
22289;SDS011;11313;50.116;8.424;2023-04-22T04:42:07;121.57;;;114.53;;
22289;SDS011;11313;50.116;8.424;2023-04-22T04:44:33;113.30;;;106.90;;
22289;SDS011;11313;50.116;8.424;2023-04-22T04:46:59;191.95;;;180.68;;
22289;SDS011;11313;50.116;8.424;2023-04-22T04:49:25;319.00;;;299.92;;
22289;SDS011;11313;50.116;8.424;2023-04-22T04:51:51;202.20;;;190.45;;
22289;SDS011;11313;50.116;8.424;2023-04-22T04:54:16;186.32;;;175.38;;
22289;SDS011;11313;50.116;8.424;2023-04-22T04:56:42;230.48;;;217.32;;
22289;SDS011;11313;50.116;8.424;2023-04-22T04:59:07;171.43;;;161.23;;
22289;SDS011;11313;50.116;8.424;2023-04-22T05:01:33;109.65;;;103.50;;
22289;SDS011;11313;50.116;8.424;2023-04-22T05:03:59;130.52;;;122.97;;
22289;SDS011;11313;50.116;8.424;2023-04-22T05:06:24;92.78;;;87.28;;
22289;SDS011;11313;50.116;8.424;2023-04-22T05:08:50;96.25;;;90.75;;
22289;SDS011;11313;50.116;8.424;2023-04-22T05:11:16;283.08;;;266.00;;
22289;SDS011;11313;50.116;8.424;2023-04-22T05:13:42;134.02;;;126.43;;
22289;SDS011;11313;50.116;8.424;2023-04-22T05:16:08;58.85;;;55.40;;
22289;SDS011;11313;50.116;8.424;2023-04-22T05:18:34;68.13;;;64.15;;
22289;SDS011;11313;50.116;8.424;2023-04-22T05:21:00;102.72;;;96.88;;
22289;SDS011;11313;50.116;8.424;2023-04-22T05:23:28;58.83;;;55.20;;
22289;SDS011;11313;50.116;8.424;2023-04-22T05:25:54;105.03;;;99.03;;
22289;SDS011;11313;50.116;8.424;2023-04-22T05:28:20;305.70;;;287.17;;
22289;SDS011;11313;50.116;8.424;2023-04-22T05:30:46;190.05;;;179.05;;
22289;SDS011;11313;50.116;8.424;2023-04-22T05:33:11;126.38;;;119.20;;
22289;SDS011;11313;50.116;8.424;2023-04-22T05:35:36;158.20;;;149.07;;
22289;SDS011;11313;50.116;8.424;2023-04-22T05:38:02;202.30;;;190.60;;
22289;SDS011;11313;50.116;8.424;2023-04-22T05:40:27;135.98;;;127.65;;
22289;SDS011;11313;50.116;8.424;2023-04-22T05:42:53;116.15;;;109.35;;
22289;SDS011;11313;50.116;8.424;2023-04-22T05:45:19;207.30;;;195.52;;
22289;SDS011;11313;50.116;8.424;2023-04-22T05:47:45;187.63;;;176.75;;
22289;SDS011;11313;50.116;8.424;2023-04-22T05:50:10;233.20;;;218.95;;
22289;SDS011;11313;50.116;8.424;2023-04-22T05:52:36;247.13;;;232.80;;
22289;SDS011;11313;50.116;8.424;2023-04-22T05:55:01;424.13;;;398.35;;
22289;SDS011;11313;50.116;8.424;2023-04-22T05:57:27;257.98;;;242.90;;
22289;SDS011;11313;50.116;8.424;2023-04-22T05:59:52;261.77;;;246.52;;
22289;SDS011;11313;50.116;8.424;2023-04-22T06:02:18;318.92;;;300.08;;
22289;SDS011;11313;50.116;8.424;2023-04-22T06:04:43;262.08;;;247.05;;
22289;SDS011;11313;50.116;8.424;2023-04-22T06:07:09;144.48;;;135.98;;
22289;SDS011;11313;50.116;8.424;2023-04-22T06:09:34;133.93;;;126.13;;
22289;SDS011;11313;50.116;8.424;2023-04-22T06:12:00;176.82;;;166.63;;
22289;SDS011;11313;50.116;8.424;2023-04-22T06:14:26;94.55;;;88.95;;
22289;SDS011;11313;50.116;8.424;2023-04-22T06:16:51;136.15;;;128.20;;
22289;SDS011;11313;50.116;8.424;2023-04-22T06:19:17;147.60;;;139.10;;
22289;SDS011;11313;50.116;8.424;2023-04-22T06:21:43;143.32;;;134.65;;
22289;SDS011;11313;50.116;8.424;2023-04-22T06:24:08;299.88;;;282.65;;
22289;SDS011;11313;50.116;8.424;2023-04-22T06:26:35;377.83;;;355.42;;
22289;SDS011;11313;50.116;8.424;2023-04-22T06:29:01;498.67;;;467.40;;
22289;SDS011;11313;50.116;8.424;2023-04-22T06:31:29;517.78;;;485.40;;
22289;SDS011;11313;50.116;8.424;2023-04-22T06:33:55;447.63;;;419.38;;
22289;SDS011;11313;50.116;8.424;2023-04-22T06:36:21;258.60;;;243.18;;
22289;SDS011;11313;50.116;8.424;2023-04-22T06:38:46;359.27;;;337.55;;
22289;SDS011;11313;50.116;8.424;2023-04-22T06:41:12;488.60;;;456.70;;
22289;SDS011;11313;50.116;8.424;2023-04-22T06:43:37;458.05;;;429.35;;
22289;SDS011;11313;50.116;8.424;2023-04-22T06:46:03;427.60;;;401.08;;
22289;SDS011;11313;50.116;8.424;2023-04-22T06:48:29;388.92;;;365.33;;
22289;SDS011;11313;50.116;8.424;2023-04-22T06:50:54;440.75;;;414.27;;
22289;SDS011;11313;50.116;8.424;2023-04-22T06:53:21;399.90;;;375.70;;
22289;SDS011;11313;50.116;8.424;2023-04-22T06:55:46;337.55;;;317.17;;
22289;SDS011;11313;50.116;8.424;2023-04-22T06:58:12;392.15;;;368.27;;
22289;SDS011;11313;50.116;8.424;2023-04-22T07:00:37;316.48;;;297.50;;
22289;SDS011;11313;50.116;8.424;2023-04-22T07:03:03;378.55;;;355.58;;
22289;SDS011;11313;50.116;8.424;2023-04-22T07:05:28;351.45;;;330.25;;
22289;SDS011;11313;50.116;8.424;2023-04-22T07:07:54;340.42;;;320.05;;
22289;SDS011;11313;50.116;8.424;2023-04-22T07:10:20;363.67;;;341.08;;
22289;SDS011;11313;50.116;8.424;2023-04-22T07:12:45;353.23;;;331.90;;
22289;SDS011;11313;50.116;8.424;2023-04-22T07:15:11;380.23;;;357.45;;
22289;SDS011;11313;50.116;8.424;2023-04-22T07:17:36;355.65;;;333.65;;
22289;SDS011;11313;50.116;8.424;2023-04-22T07:20:02;377.77;;;354.67;;
22289;SDS011;11313;50.116;8.424;2023-04-22T07:22:28;488.98;;;458.88;;
22289;SDS011;11313;50.116;8.424;2023-04-22T07:24:54;315.60;;;296.15;;
22289;SDS011;11313;50.116;8.424;2023-04-22T07:27:19;301.17;;;283.38;;
22289;SDS011;11313;50.116;8.424;2023-04-22T07:29:45;316.58;;;297.45;;
22289;SDS011;11313;50.116;8.424;2023-04-22T07:32:10;307.75;;;289.15;;
22289;SDS011;11313;50.116;8.424;2023-04-22T07:34:36;306.58;;;287.95;;
22289;SDS011;11313;50.116;8.424;2023-04-22T07:37:01;377.63;;;354.85;;
22289;SDS011;11313;50.116;8.424;2023-04-22T07:39:27;368.42;;;345.45;;
22289;SDS011;11313;50.116;8.424;2023-04-22T07:41:52;340.85;;;320.25;;
22289;SDS011;11313;50.116;8.424;2023-04-22T07:44:20;607.28;;;566.22;;
22289;SDS011;11313;50.116;8.424;2023-04-22T07:46:46;316.75;;;297.33;;
22289;SDS011;11313;50.116;8.424;2023-04-22T07:49:12;312.88;;;294.20;;
22289;SDS011;11313;50.116;8.424;2023-04-22T07:51:38;354.40;;;332.70;;
22289;SDS011;11313;50.116;8.424;2023-04-22T07:54:05;434.90;;;407.98;;
22289;SDS011;11313;50.116;8.424;2023-04-22T07:56:30;453.60;;;425.02;;
22289;SDS011;11313;50.116;8.424;2023-04-22T07:58:57;381.88;;;358.48;;
22289;SDS011;11313;50.116;8.424;2023-04-22T08:01:22;320.70;;;301.63;;
22289;SDS011;11313;50.116;8.424;2023-04-22T08:03:48;357.85;;;336.15;;
22289;SDS011;11313;50.116;8.424;2023-04-22T08:06:13;457.20;;;428.80;;
22289;SDS011;11313;50.116;8.424;2023-04-22T08:08:39;340.65;;;319.60;;
22289;SDS011;11313;50.116;8.424;2023-04-22T08:11:04;301.42;;;283.88;;
22289;SDS011;11313;50.116;8.424;2023-04-22T08:13:31;431.75;;;404.33;;
22289;SDS011;11313;50.116;8.424;2023-04-22T08:15:56;294.17;;;276.48;;
22289;SDS011;11313;50.116;8.424;2023-04-22T08:18:22;244.40;;;229.65;;
22289;SDS011;11313;50.116;8.424;2023-04-22T08:20:47;312.92;;;294.15;;
22289;SDS011;11313;50.116;8.424;2023-04-22T08:23:14;466.67;;;437.23;;
22289;SDS011;11313;50.116;8.424;2023-04-22T08:25:39;626.13;;;582.65;;
22289;SDS011;11313;50.116;8.424;2023-04-22T08:28:05;382.35;;;358.77;;
22289;SDS011;11313;50.116;8.424;2023-04-22T08:30:30;364.15;;;342.10;;
22289;SDS011;11313;50.116;8.424;2023-04-22T08:32:56;357.38;;;335.73;;
22289;SDS011;11313;50.116;8.424;2023-04-22T08:35:21;272.40;;;256.67;;
22289;SDS011;11313;50.116;8.424;2023-04-22T08:37:47;333.05;;;312.95;;
22289;SDS011;11313;50.116;8.424;2023-04-22T08:40:12;364.58;;;342.70;;
22289;SDS011;11313;50.116;8.424;2023-04-22T08:42:38;374.20;;;351.58;;
22289;SDS011;11313;50.116;8.424;2023-04-22T08:45:04;400.48;;;375.30;;
22289;SDS011;11313;50.116;8.424;2023-04-22T08:47:30;374.13;;;351.45;;
22289;SDS011;11313;50.116;8.424;2023-04-22T08:50:00;341.17;;;320.33;;
22289;SDS011;11313;50.116;8.424;2023-04-22T08:52:28;354.48;;;333.00;;
22289;SDS011;11313;50.116;8.424;2023-04-22T08:54:54;370.25;;;347.77;;
22289;SDS011;11313;50.116;8.424;2023-04-22T08:57:20;276.90;;;260.58;;
22289;SDS011;11313;50.116;8.424;2023-04-22T08:59:46;433.27;;;405.48;;
22289;SDS011;11313;50.116;8.424;2023-04-22T09:02:16;624.08;;;580.60;;
22289;SDS011;11313;50.116;8.424;2023-04-22T09:04:45;665.13;;;617.53;;
22289;SDS011;11313;50.116;8.424;2023-04-22T09:07:13;420.42;;;394.67;;
22289;SDS011;11313;50.116;8.424;2023-04-22T09:09:44;401.27;;;376.85;;
22289;SDS011;11313;50.116;8.424;2023-04-22T09:12:10;550.63;;;513.03;;
22289;SDS011;11313;50.116;8.424;2023-04-22T09:14:36;405.13;;;380.17;;
22289;SDS011;11313;50.116;8.424;2023-04-22T09:17:03;407.58;;;382.05;;
22289;SDS011;11313;50.116;8.424;2023-04-22T09:19:28;594.53;;;554.08;;
22289;SDS011;11313;50.116;8.424;2023-04-22T09:21:56;403.77;;;378.70;;
22289;SDS011;11313;50.116;8.424;2023-04-22T09:24:23;399.73;;;375.02;;
22289;SDS011;11313;50.116;8.424;2023-04-22T09:26:48;508.15;;;474.52;;
22289;SDS011;11313;50.116;8.424;2023-04-22T09:29:14;303.10;;;285.00;;
22289;SDS011;11313;50.116;8.424;2023-04-22T09:31:40;431.38;;;403.77;;
22289;SDS011;11313;50.116;8.424;2023-04-22T09:34:07;647.42;;;601.63;;
22289;SDS011;11313;50.116;8.424;2023-04-22T09:36:32;400.63;;;375.90;;
22289;SDS011;11313;50.116;8.424;2023-04-22T09:39:02;650.70;;;604.58;;
22289;SDS011;11313;50.116;8.424;2023-04-22T09:41:33;655.28;;;608.65;;
22289;SDS011;11313;50.116;8.424;2023-04-22T09:44:01;400.25;;;375.10;;
22289;SDS011;11313;50.116;8.424;2023-04-22T09:46:28;559.58;;;522.83;;
22289;SDS011;11313;50.116;8.424;2023-04-22T09:48:55;466.92;;;437.17;;
22289;SDS011;11313;50.116;8.424;2023-04-22T09:51:22;516.00;;;482.63;;
22289;SDS011;11313;50.116;8.424;2023-04-22T09:54:02;395.70;;;371.65;;
22289;SDS011;11313;50.116;8.424;2023-04-22T09:59:18;447.40;;;419.23;;
22289;SDS011;11313;50.116;8.424;2023-04-22T10:01:48;317.23;;;298.45;;
22289;SDS011;11313;50.116;8.424;2023-04-22T10:04:19;610.22;;;566.78;;
22289;SDS011;11313;50.116;8.424;2023-04-22T10:06:49;334.88;;;314.77;;
22289;SDS011;11313;50.116;8.424;2023-04-22T10:09:19;368.10;;;345.33;;
22289;SDS011;11313;50.116;8.424;2023-04-22T10:11:47;447.05;;;418.88;;
22289;SDS011;11313;50.116;8.424;2023-04-22T10:14:14;324.48;;;304.88;;
22289;SDS011;11313;50.116;8.424;2023-04-22T10:16:42;622.17;;;579.28;;
22289;SDS011;11313;50.116;8.424;2023-04-22T10:19:11;373.90;;;350.88;;
22289;SDS011;11313;50.116;8.424;2023-04-22T10:21:47;326.23;;;306.65;;
22289;SDS011;11313;50.116;8.424;2023-04-22T10:24:16;333.30;;;312.65;;
22289;SDS011;11313;50.116;8.424;2023-04-22T10:26:46;259.50;;;244.10;;
22289;SDS011;11313;50.116;8.424;2023-04-22T10:29:23;617.10;;;574.28;;
22289;SDS011;11313;50.116;8.424;2023-04-22T10:31:52;347.92;;;326.67;;
22289;SDS011;11313;50.116;8.424;2023-04-22T10:34:26;271.13;;;255.07;;
22289;SDS011;11313;50.116;8.424;2023-04-22T10:36:57;303.33;;;285.27;;
22289;SDS011;11313;50.116;8.424;2023-04-22T10:39:34;296.77;;;279.05;;
22289;SDS011;11313;50.116;8.424;2023-04-22T10:44:43;391.60;;;367.40;;
22289;SDS011;11313;50.116;8.424;2023-04-22T10:49:48;356.63;;;334.98;;
22289;SDS011;11313;50.116;8.424;2023-04-22T10:52:26;319.45;;;300.00;;
22289;SDS011;11313;50.116;8.424;2023-04-22T10:57:18;546.13;;;510.60;;
22289;SDS011;11313;50.116;8.424;2023-04-22T10:59:53;354.58;;;332.85;;
22289;SDS011;11313;50.116;8.424;2023-04-22T11:02:22;289.67;;;272.55;;
22289;SDS011;11313;50.116;8.424;2023-04-22T11:04:48;368.00;;;345.75;;
22289;SDS011;11313;50.116;8.424;2023-04-22T11:09:45;342.05;;;321.35;;
22289;SDS011;11313;50.116;8.424;2023-04-22T11:15:13;314.90;;;295.92;;
22289;SDS011;11313;50.116;8.424;2023-04-22T11:17:41;564.47;;;527.60;;
22289;SDS011;11313;50.116;8.424;2023-04-22T11:20:08;584.63;;;545.03;;
22289;SDS011;11313;50.116;8.424;2023-04-22T11:22:35;302.30;;;284.25;;
22289;SDS011;11313;50.116;8.424;2023-04-22T11:25:01;347.05;;;325.35;;
22289;SDS011;11313;50.116;8.424;2023-04-22T11:27:28;338.67;;;318.17;;
22289;SDS011;11313;50.116;8.424;2023-04-22T11:30:04;339.48;;;318.73;;
22289;SDS011;11313;50.116;8.424;2023-04-22T11:32:31;238.98;;;224.80;;
22289;SDS011;11313;50.116;8.424;2023-04-22T11:34:57;357.02;;;335.10;;
22289;SDS011;11313;50.116;8.424;2023-04-22T11:37:23;273.67;;;257.25;;
22289;SDS011;11313;50.116;8.424;2023-04-22T11:39:48;275.27;;;258.77;;
22289;SDS011;11313;50.116;8.424;2023-04-22T11:42:20;342.13;;;321.50;;
22289;SDS011;11313;50.116;8.424;2023-04-22T11:44:46;418.85;;;393.33;;
22289;SDS011;11313;50.116;8.424;2023-04-22T11:47:12;287.65;;;270.77;;
22289;SDS011;11313;50.116;8.424;2023-04-22T11:49:38;244.23;;;229.80;;
22289;SDS011;11313;50.116;8.424;2023-04-22T11:52:03;309.50;;;290.77;;
22289;SDS011;11313;50.116;8.424;2023-04-22T11:54:32;273.05;;;256.75;;
22289;SDS011;11313;50.116;8.424;2023-04-22T11:57:02;390.30;;;366.20;;
22289;SDS011;11313;50.116;8.424;2023-04-22T11:59:29;356.35;;;334.50;;
22289;SDS011;11313;50.116;8.424;2023-04-22T12:01:54;410.23;;;385.27;;
22289;SDS011;11313;50.116;8.424;2023-04-22T12:04:20;550.22;;;514.65;;
22289;SDS011;11313;50.116;8.424;2023-04-22T12:06:46;344.63;;;323.75;;
22289;SDS011;11313;50.116;8.424;2023-04-22T12:09:12;341.17;;;320.58;;
22289;SDS011;11313;50.116;8.424;2023-04-22T12:11:38;346.50;;;325.52;;
22289;SDS011;11313;50.116;8.424;2023-04-22T12:14:04;314.02;;;295.23;;
22289;SDS011;11313;50.116;8.424;2023-04-22T12:16:38;257.98;;;242.35;;
22289;SDS011;11313;50.116;8.424;2023-04-22T12:19:05;265.50;;;249.88;;
22289;SDS011;11313;50.116;8.424;2023-04-22T12:21:30;301.92;;;283.95;;
22289;SDS011;11313;50.116;8.424;2023-04-22T12:26:29;258.08;;;242.95;;
22289;SDS011;11313;50.116;8.424;2023-04-22T12:28:55;250.38;;;235.57;;
22289;SDS011;11313;50.116;8.424;2023-04-22T12:31:22;248.13;;;233.57;;
22289;SDS011;11313;50.116;8.424;2023-04-22T12:33:48;269.77;;;253.77;;
22289;SDS011;11313;50.116;8.424;2023-04-22T12:36:13;251.82;;;237.00;;
22289;SDS011;11313;50.116;8.424;2023-04-22T12:38:39;270.98;;;254.68;;
22289;SDS011;11313;50.116;8.424;2023-04-22T12:41:06;408.90;;;383.52;;
22289;SDS011;11313;50.116;8.424;2023-04-22T12:43:32;139.32;;;131.13;;
22289;SDS011;11313;50.116;8.424;2023-04-22T12:46:00;193.13;;;181.68;;
22289;SDS011;11313;50.116;8.424;2023-04-22T12:48:26;258.38;;;243.00;;
22289;SDS011;11313;50.116;8.424;2023-04-22T12:50:52;266.80;;;250.93;;
22289;SDS011;11313;50.116;8.424;2023-04-22T12:53:19;260.63;;;245.10;;
22289;SDS011;11313;50.116;8.424;2023-04-22T12:55:45;327.13;;;307.23;;
22289;SDS011;11313;50.116;8.424;2023-04-22T12:58:12;258.17;;;242.60;;
22289;SDS011;11313;50.116;8.424;2023-04-22T13:00:38;253.85;;;238.52;;
22289;SDS011;11313;50.116;8.424;2023-04-22T13:03:03;169.85;;;159.75;;
22289;SDS011;11313;50.116;8.424;2023-04-22T13:05:29;482.70;;;452.13;;
22289;SDS011;11313;50.116;8.424;2023-04-22T13:07:55;235.05;;;221.05;;
22289;SDS011;11313;50.116;8.424;2023-04-22T13:10:20;200.65;;;188.55;;
22289;SDS011;11313;50.116;8.424;2023-04-22T13:12:46;111.22;;;104.60;;
22289;SDS011;11313;50.116;8.424;2023-04-22T13:15:12;190.77;;;179.68;;
22289;SDS011;11313;50.116;8.424;2023-04-22T13:17:39;269.05;;;253.15;;
22289;SDS011;11313;50.116;8.424;2023-04-22T13:20:05;214.43;;;201.80;;
22289;SDS011;11313;50.116;8.424;2023-04-22T13:22:33;224.45;;;211.32;;
22289;SDS011;11313;50.116;8.424;2023-04-22T13:24:59;174.20;;;163.88;;
22289;SDS011;11313;50.116;8.424;2023-04-22T13:27:25;177.73;;;167.18;;
22289;SDS011;11313;50.116;8.424;2023-04-22T13:29:52;203.23;;;191.15;;
22289;SDS011;11313;50.116;8.424;2023-04-22T13:32:18;207.85;;;195.05;;
22289;SDS011;11313;50.116;8.424;2023-04-22T13:34:44;203.25;;;190.75;;
22289;SDS011;11313;50.116;8.424;2023-04-22T13:37:10;152.82;;;143.25;;
22289;SDS011;11313;50.116;8.424;2023-04-22T13:39:36;129.45;;;121.28;;
22289;SDS011;11313;50.116;8.424;2023-04-22T13:42:01;65.72;;;61.53;;
22289;SDS011;11313;50.116;8.424;2023-04-22T13:44:27;99.75;;;93.50;;
22289;SDS011;11313;50.116;8.424;2023-04-22T13:46:53;256.45;;;241.30;;
22289;SDS011;11313;50.116;8.424;2023-04-22T13:49:18;327.08;;;306.60;;
22289;SDS011;11313;50.116;8.424;2023-04-22T13:51:44;87.07;;;81.57;;
22289;SDS011;11313;50.116;8.424;2023-04-22T13:54:09;65.68;;;61.63;;
22289;SDS011;11313;50.116;8.424;2023-04-22T13:56:35;72.63;;;67.85;;
22289;SDS011;11313;50.116;8.424;2023-04-22T13:59:00;55.15;;;51.63;;
22289;SDS011;11313;50.116;8.424;2023-04-22T14:01:26;54.70;;;51.30;;
22289;SDS011;11313;50.116;8.424;2023-04-22T14:03:52;42.33;;;38.97;;
22289;SDS011;11313;50.116;8.424;2023-04-22T14:06:18;60.53;;;56.65;;
22289;SDS011;11313;50.116;8.424;2023-04-22T14:08:44;21.90;;;20.38;;
22289;SDS011;11313;50.116;8.424;2023-04-22T14:11:10;233.15;;;219.02;;
22289;SDS011;11313;50.116;8.424;2023-04-22T14:13:36;42.33;;;39.47;;
22289;SDS011;11313;50.116;8.424;2023-04-22T14:16:03;81.50;;;76.38;;
22289;SDS011;11313;50.116;8.424;2023-04-22T14:18:33;48.10;;;44.97;;